^^
Meteo Knjazevac Station Historical Data
Daily Summary for August 14, 2021 Units:  Metric    English   Both
Daily Weekly Monthly Yearly Custom
  High: Low: Average:
Temperature: 22.4 °C 17 °C 19.1 °C
Dew Point: 18.6 °C 14.4 °C 15.6 °C
Humidity: 88% 69% 80%
Wind Speed: 4.8km/h 0km/h 1.3km/h
Wind Gust: 14.5km/h - -
Wind- - SSW
Pressure: 1017.5 hPa 1015.5 hPa -
Precipitation: 0 mm    
Historical Graphs
 
 
Tabular Data for August 14, 2021
Time Temperature Dew Point Pressure Wind Wind Speed Wind Gust Humidity Rainfall Rate (Hourly) solar Conditions
00:00 22.3 °C 16.3 °C 1015.5 hPa Calm   3.2 km/h 69% 0 mm 0 W/m2
00:10 22.1 °C 16.4 °C 1015.5 hPa SE 1.6 km/h 3.2 km/h 70% 0 mm 0 W/m2
00:20 21.8 °C 16.1 °C 1015.5 hPa Calm   4.8 km/h 70% 0 mm 0 W/m2
00:30 21.5 °C 16.4 °C 1015.5 hPa WNW 3.2 km/h 4.8 km/h 73% 0 mm 0 W/m2
00:40 21.2 °C 16.2 °C 1015.5 hPa West 3.2 km/h 4.8 km/h 73% 0 mm 0 W/m2
00:50 20.8 °C 15.8 °C 1015.5 hPa WSW 1.6 km/h 4.8 km/h 73% 0 mm 0 W/m2
01:00 20.4 °C 15.6 °C 1015.5 hPa WSW 1.6 km/h 3.2 km/h 74% 0 mm 0 W/m2
01:10 20.1 °C 15.6 °C 1015.5 hPa West 3.2 km/h 6.4 km/h 75% 0 mm 0 W/m2
01:20 20 °C 15.4 °C 1015.5 hPa West 3.2 km/h 6.4 km/h 75% 0 mm 0 W/m2
01:30 19.9 °C 15.3 °C 1015.5 hPa WSW 3.2 km/h 8 km/h 75% 0 mm 0 W/m2
01:40 19.7 °C 15.2 °C 1015.8 hPa West 3.2 km/h 8 km/h 75% 0 mm 0 W/m2
01:50 19.6 °C 15.1 °C 1015.8 hPa WNW 3.2 km/h 6.4 km/h 75% 0 mm 0 W/m2
02:00 19.6 °C 15.1 °C 1015.8 hPa Calm   6.4 km/h 75% 0 mm 0 W/m2
02:10 19.6 °C 15.4 °C 1015.8 hPa Calm   3.2 km/h 77% 0 mm 0 W/m2
02:20 19.4 °C 15.4 °C 1015.8 hPa Calm   1.6 km/h 78% 0 mm 0 W/m2
02:30 19.3 °C 15.4 °C 1015.8 hPa Calm   3.2 km/h 78% 0 mm 0 W/m2
02:40 19.1 °C 15.2 °C 1015.8 hPa Calm   1.6 km/h 78% 0 mm 0 W/m2
02:50 18.8 °C 15.1 °C 1015.8 hPa Calm   3.2 km/h 79% 0 mm 0 W/m2
03:00 18.6 °C 15.1 °C 1015.8 hPa Calm   3.2 km/h 80% 0 mm 0 W/m2
03:10 18.4 °C 14.9 °C 1015.8 hPa Calm   3.2 km/h 80% 0 mm 0 W/m2
03:20 18.3 °C 14.8 °C 1016.1 hPa Calm   1.6 km/h 80% 0 mm 0 W/m2
03:30 18.3 °C 14.8 °C 1016.1 hPa North 1.6 km/h 3.2 km/h 80% 0 mm 0 W/m2
03:40 18.3 °C 15 °C 1016.1 hPa North 1.6 km/h 3.2 km/h 81% 0 mm 0 W/m2
03:50 18.3 °C 15 °C 1016.1 hPa Calm   6.4 km/h 81% 0 mm 0 W/m2
04:00 18.1 °C 14.8 °C 1016.1 hPa WNW 1.6 km/h 8 km/h 81% 0 mm 0 W/m2
04:10 18.2 °C 15.3 °C 1016.1 hPa Calm   9.7 km/h 83% 0 mm 0 W/m2
04:20 18 °C 14.7 °C 1016.1 hPa NE 1.6 km/h 8 km/h 81% 0 mm 0 W/m2
04:30 18 °C 15.1 °C 1016.1 hPa Calm   3.2 km/h 83% 0 mm 0 W/m2
04:40 17.8 °C 14.9 °C 1016.5 hPa Calm   3.2 km/h 83% 0 mm 0 W/m2
04:50 17.6 °C 14.7 °C 1016.1 hPa Calm   1.6 km/h 83% 0 mm 0 W/m2
05:00 17.5 °C 14.8 °C 1016.5 hPa West 1.6 km/h 1.6 km/h 84% 0 mm 0 W/m2
05:10 17.3 °C 14.6 °C 1016.5 hPa Calm   3.2 km/h 84% 0 mm 7 W/m2
05:20 17.2 °C 14.7 °C 1016.5 hPa Calm   1.6 km/h 85% 0 mm 14 W/m2
05:30 17.1 °C 14.6 °C 1016.8 hPa West 1.6 km/h 3.2 km/h 85% 0 mm 24 W/m2
05:40 17 °C 14.4 °C 1016.8 hPa Calm   4.8 km/h 85% 0 mm 35 W/m2
05:50 17.1 °C 14.6 °C 1016.8 hPa Calm   1.6 km/h 85% 0 mm 48 W/m2
06:00 17 °C 14.7 °C 1017.2 hPa Calm   1.6 km/h 86% 0 mm 65 W/m2
06:10 17 °C 14.7 °C 1017.2 hPa NNW 1.6 km/h 3.2 km/h 86% 0 mm 83 W/m2
06:20 17 °C 14.7 °C 1017.2 hPa Calm   3.2 km/h 86% 0 mm 101 W/m2
06:30 17.2 °C 15.2 °C 1017.2 hPa NW 1.6 km/h 3.2 km/h 88% 0 mm 127 W/m2
06:40 17.4 °C 15.1 °C 1017.2 hPa Calm   3.2 km/h 86% 0 mm 147 W/m2
06:50 17.6 °C 15.2 °C 1017.2 hPa NW 1.6 km/h 3.2 km/h 86% 0 mm 170 W/m2
07:00 17.8 °C 15.4 °C 1017.2 hPa West 1.6 km/h 3.2 km/h 86% 0 mm 197 W/m2
07:10 18.1 °C 15.6 °C 1017.2 hPa WSW 3.2 km/h 3.2 km/h 85% 0 mm 227 W/m2
07:20 18.3 °C 15.7 °C 1017.2 hPa Calm   3.2 km/h 85% 0 mm 256 W/m2
07:30 18.7 °C 15.9 °C 1017.2 hPa WNW 1.6 km/h 3.2 km/h 84% 0 mm 287 W/m2
07:40 19 °C 16.2 °C 1017.2 hPa Calm   3.2 km/h 84% 0 mm 319 W/m2
07:50 19.4 °C 16.8 °C 1017.5 hPa SE 3.2 km/h 4.8 km/h 85% 0 mm 356 W/m2
08:00 20 °C 17 °C 1017.5 hPa NE 1.6 km/h 8 km/h 83% 0 mm 388 W/m2
08:10 20.6 °C 17.2 °C 1017.5 hPa NE 3.2 km/h 11.3 km/h 81% 0 mm 421 W/m2
08:20 21 °C 17.4 °C 1017.5 hPa NNE 4.8 km/h 11.3 km/h 80% 0 mm 453 W/m2
08:30 21.5 °C 17.9 °C 1017.5 hPa North 1.6 km/h 12.9 km/h 80% 0 mm 486 W/m2
08:40 21.9 °C 18.1 °C 1017.5 hPa NNE 4.8 km/h 12.9 km/h 79% 0 mm 516 W/m2
08:50 22.4 °C 18.6 °C 1017.5 hPa NNE 1.6 km/h 14.5 km/h 79% 0 mm 552 W/m2
Knjazevac, Serbia
Compliments of Weather Underground - 2 mb